createdAt,value
2018-04-17T00:00:43.759Z,13.22
2018-04-17T00:03:13.344Z,13.27
2018-04-17T00:05:42.926Z,13.20
2018-04-17T00:08:12.558Z,13.07
2018-04-17T00:10:42.134Z,12.90
2018-04-17T00:13:11.700Z,12.88
2018-04-17T00:15:41.070Z,12.82
2018-04-17T00:18:11.045Z,12.88
2018-04-17T00:20:40.619Z,12.74
2018-04-17T00:23:10.196Z,12.71
2018-04-17T00:25:40.186Z,12.58
2018-04-17T00:28:09.763Z,12.33
2018-04-17T00:30:39.347Z,12.09
2018-04-17T00:33:08.929Z,11.97
2018-04-17T00:35:38.703Z,11.98
2018-04-17T00:38:08.282Z,11.88
2018-04-17T00:40:37.863Z,11.76
2018-04-17T00:43:07.843Z,11.67
2018-04-17T00:45:37.453Z,11.55
2018-04-17T00:48:07.032Z,11.44
2018-04-17T00:50:36.610Z,11.45
2018-04-17T00:53:22.805Z,11.55
2018-04-17T00:55:52.779Z,11.55
2018-04-17T00:58:22.381Z,11.48
2018-04-17T01:00:51.709Z,11.62
2018-04-17T01:03:21.285Z,11.59
2018-04-17T01:05:50.863Z,11.67
2018-04-17T01:08:20.437Z,11.59
2018-04-17T01:10:50.417Z,11.81
2018-04-17T01:13:20.004Z,11.64
2018-04-17T01:15:49.608Z,11.48
2018-04-17T01:18:19.195Z,11.45
2018-04-17T01:20:48.773Z,11.41
2018-04-17T01:23:18.353Z,11.42
2018-04-17T01:25:47.937Z,11.42
2018-04-17T01:28:17.515Z,11.51
2018-04-17T01:30:47.511Z,11.48
2018-04-17T01:33:17.091Z,11.48
2018-04-17T01:35:46.682Z,11.35
2018-04-17T01:38:16.892Z,11.35
2018-04-17T01:40:46.478Z,11.17
2018-04-17T01:43:16.455Z,11.02
2018-04-17T01:45:46.052Z,11.12
2018-04-17T01:48:15.640Z,11.17
2018-04-17T01:50:45.250Z,11.44
2018-04-17T01:53:14.835Z,11.34
2018-04-17T01:55:44.418Z,11.11
2018-04-17T01:58:14.406Z,11.03
2018-04-17T02:00:43.991Z,11.05
2018-04-17T02:03:13.580Z,11.18
2018-04-17T02:05:42.826Z,11.23
2018-04-17T02:08:12.411Z,11.44
2018-04-17T02:10:41.997Z,11.42
2018-04-17T02:13:11.588Z,11.50
2018-04-17T02:15:41.555Z,11.55
2018-04-17T02:18:11.142Z,11.64
2018-04-17T02:20:40.481Z,11.54
2018-04-17T02:23:10.057Z,11.52
2018-04-17T02:25:39.638Z,11.46
2018-04-17T02:28:09.216Z,11.57
2018-04-17T02:30:38.798Z,11.70
2018-04-17T02:33:08.386Z,11.83
2018-04-17T02:35:37.973Z,11.82
2018-04-17T02:38:07.549Z,11.89
2018-04-17T02:40:37.130Z,11.79
2018-04-17T02:43:06.714Z,11.79
2018-04-17T02:45:36.309Z,11.78
2018-04-17T02:48:05.896Z,11.60
2018-04-17T02:50:35.655Z,11.57
2018-04-17T02:53:05.254Z,11.69
2018-04-17T02:55:34.832Z,11.57
2018-04-17T02:58:04.411Z,11.45
2018-04-17T03:00:33.994Z,11.42
2018-04-17T03:03:03.579Z,11.29
2018-04-17T03:05:33.186Z,11.21
2018-04-17T03:08:02.765Z,11.18
2018-04-17T03:10:32.352Z,11.18
2018-04-17T03:13:01.934Z,11.07
2018-04-17T03:15:31.526Z,11.12
2018-04-17T03:18:01.158Z,10.95
2018-04-17T03:20:31.154Z,11.05
2018-04-17T03:23:00.744Z,11.04
2018-04-17T03:25:30.330Z,10.91
2018-04-17T03:27:59.683Z,10.86
2018-04-17T03:30:29.033Z,11.00
2018-04-17T03:32:58.395Z,10.90
2018-04-17T03:35:27.986Z,10.82
2018-04-17T03:37:57.589Z,10.76
2018-04-17T03:40:27.164Z,10.91
2018-04-17T03:42:56.756Z,10.92
2018-04-17T03:45:26.732Z,11.04
2018-04-17T03:47:56.328Z,11.19
2018-04-17T03:50:25.927Z,11.27
2018-04-17T03:52:55.509Z,11.31
2018-04-17T03:55:25.102Z,11.35
2018-04-17T03:57:55.084Z,11.23
2018-04-17T04:00:24.654Z,11.30
2018-04-17T04:02:54.460Z,11.38
2018-04-17T04:05:24.050Z,11.34
2018-04-17T04:07:54.018Z,11.33
2018-04-17T04:10:23.600Z,11.42
2018-04-17T04:12:53.188Z,11.44
2018-04-17T04:15:22.786Z,11.24
2018-04-17T04:18:09.413Z,11.17
2018-04-17T04:20:55.936Z,11.27
2018-04-17T04:26:36.579Z,11.40
2018-04-17T04:29:06.558Z,11.44
2018-04-17T04:31:36.200Z,11.47
2018-04-17T04:34:06.543Z,11.34
2018-04-17T04:36:36.153Z,11.38
2018-04-17T04:39:04.842Z,11.34
2018-04-17T04:41:34.458Z,11.44
2018-04-17T04:44:04.043Z,11.43
2018-04-17T04:46:34.021Z,11.34
2018-04-17T04:49:03.607Z,11.31
2018-04-17T04:51:33.181Z,11.27
2018-04-17T04:54:03.168Z,11.08
2018-04-17T04:56:32.760Z,10.72
2018-04-17T04:59:02.346Z,10.89
2018-04-17T05:01:31.939Z,10.92
2018-04-17T05:04:01.565Z,10.98
2018-04-17T05:06:31.171Z,10.82
2018-04-17T05:09:00.769Z,10.95
2018-04-17T05:11:30.373Z,11.15
2018-04-17T05:13:59.733Z,11.18
2018-04-17T05:16:28.992Z,11.20
2018-04-17T05:18:58.501Z,11.23
2018-04-17T05:21:28.013Z,11.22
2018-04-17T05:23:57.551Z,11.25
2018-04-17T05:26:27.235Z,11.22
2018-04-17T05:28:56.736Z,11.26
2018-04-17T05:31:26.250Z,11.23
2018-04-17T05:33:55.770Z,11.18
2018-04-17T05:36:25.288Z,11.31
2018-04-17T05:38:54.824Z,11.36
2018-04-17T05:41:24.344Z,11.34
2018-04-17T05:43:53.858Z,11.43
2018-04-17T05:46:23.361Z,11.46
2018-04-17T05:48:52.932Z,11.50
2018-04-17T05:51:22.832Z,11.55
2018-04-17T05:53:52.922Z,11.65
2018-04-17T05:56:22.438Z,11.63
2018-04-17T05:58:51.718Z,11.62
2018-04-17T06:01:20.999Z,11.71
2018-04-17T06:03:50.518Z,11.89
2018-04-17T06:06:20.039Z,11.95
2018-04-17T06:08:49.552Z,11.94
2018-04-17T06:11:19.054Z,11.66
2018-04-17T06:13:48.606Z,11.62
2018-04-17T06:16:18.118Z,11.56
2018-04-17T06:18:47.647Z,11.81
2018-04-17T06:21:17.156Z,11.26
2018-04-17T06:23:46.704Z,10.97
2018-04-17T06:26:16.225Z,10.85
2018-04-17T06:28:46.128Z,10.91
2018-04-17T06:31:16.050Z,10.67
2018-04-17T06:33:45.943Z,10.62
2018-04-17T06:36:15.448Z,10.61
2018-04-17T06:38:44.958Z,10.66
2018-04-17T06:41:14.467Z,10.83
2018-04-17T06:43:43.755Z,10.87
2018-04-17T06:46:13.260Z,10.74
2018-04-17T06:48:42.765Z,10.98
2018-04-17T06:51:12.288Z,10.85
2018-04-17T06:53:41.997Z,10.72
2018-04-17T06:56:11.499Z,10.65
2018-04-17T06:58:41.010Z,10.80
2018-04-17T07:01:10.514Z,10.91
2018-04-17T07:03:40.019Z,11.11
2018-04-17T07:06:09.528Z,10.98
2018-04-17T07:08:39.024Z,11.45
2018-04-17T07:11:08.527Z,11.22
2018-04-17T07:13:38.064Z,11.15
2018-04-17T07:16:07.992Z,11.04
2018-04-17T07:18:37.495Z,11.26
2018-04-17T07:21:06.668Z,11.52
2018-04-17T07:23:36.603Z,11.47
2018-04-17T07:26:06.286Z,11.46
2018-04-17T07:28:35.803Z,11.46
2018-04-17T07:31:05.720Z,11.46
2018-04-17T07:33:35.619Z,11.37
2018-04-17T07:36:05.176Z,11.35
2018-04-17T07:38:34.688Z,11.31
2018-04-17T07:41:03.970Z,11.54
2018-04-17T07:43:33.475Z,11.73
2018-04-17T07:46:03.010Z,11.74
2018-04-17T07:48:46.505Z,11.79
2018-04-17T07:51:16.419Z,12.28
2018-04-17T07:53:46.324Z,12.37
2018-04-17T07:56:16.021Z,12.02
2018-04-17T07:58:45.518Z,12.10
2018-04-17T08:01:15.033Z,12.09
2018-04-17T08:03:44.541Z,12.07
2018-04-17T08:06:14.044Z,11.82
2018-04-17T08:08:43.545Z,11.79
2018-04-17T08:11:13.051Z,11.89
2018-04-17T08:13:42.564Z,11.98
2018-04-17T08:16:12.070Z,12.44
2018-04-17T08:18:41.576Z,12.65
2018-04-17T08:21:11.084Z,12.87
2018-04-17T08:23:40.604Z,13.03
2018-04-17T08:26:10.498Z,12.94
2018-04-17T08:28:40.014Z,12.93
2018-04-17T08:31:09.924Z,12.82
2018-04-17T08:33:39.635Z,13.16
2018-04-17T08:36:09.144Z,13.37
2018-04-17T08:38:38.645Z,13.41
2018-04-17T08:41:08.141Z,13.55
2018-04-17T08:43:37.841Z,13.84
2018-04-17T08:46:07.336Z,13.81
2018-04-17T08:48:36.850Z,13.96
2018-04-17T08:51:06.556Z,13.60
2018-04-17T08:53:36.070Z,13.70
2018-04-17T08:56:05.575Z,13.66
2018-04-17T08:58:35.086Z,13.96
2018-04-17T09:01:04.612Z,13.90
2018-04-17T09:03:34.526Z,14.02
2018-04-17T09:06:04.420Z,13.87
2018-04-17T09:08:33.922Z,14.04
2018-04-17T09:11:03.451Z,14.05
2018-04-17T09:13:33.348Z,14.12
2018-04-17T09:16:02.862Z,14.31
2018-04-17T09:18:32.794Z,14.41
2018-04-17T09:21:02.705Z,14.82
2018-04-17T09:23:32.609Z,15.01
2018-04-17T09:26:02.131Z,15.10
2018-04-17T09:28:32.083Z,15.20
2018-04-17T09:31:01.586Z,15.52
2018-04-17T09:33:31.099Z,15.63
2018-04-17T09:36:00.619Z,16.00
2018-04-17T09:38:30.307Z,15.96
2018-04-17T09:40:59.824Z,16.32
2018-04-17T09:43:29.325Z,16.55
2018-04-17T09:45:58.832Z,16.84
2018-04-17T09:48:28.342Z,16.59
2018-04-17T09:50:57.854Z,16.47
2018-04-17T09:53:27.132Z,16.42
2018-04-17T09:55:56.628Z,16.75
2018-04-17T09:58:26.134Z,16.62
2018-04-17T10:00:59.534Z,16.85
2018-04-17T10:03:29.046Z,16.95
2018-04-17T10:05:58.562Z,17.09
2018-04-17T10:08:28.073Z,17.39
2018-04-17T10:10:57.634Z,17.25
2018-04-17T10:13:27.552Z,17.27
2018-04-17T10:15:57.462Z,17.68
2018-04-17T10:18:27.358Z,18.23
2018-04-17T10:20:56.884Z,17.95
2018-04-17T10:23:26.899Z,17.89
2018-04-17T10:25:56.822Z,18.45
2018-04-17T10:28:26.726Z,18.81
2018-04-17T10:30:56.675Z,18.72
2018-04-17T10:33:26.170Z,18.24
2018-04-17T10:35:55.674Z,18.79
2018-04-17T10:38:25.169Z,18.57
2018-04-17T10:40:55.085Z,19.11
2018-04-17T10:43:25.016Z,19.04
2018-04-17T10:45:54.525Z,19.10
2018-04-17T10:48:24.027Z,18.78
2018-04-17T10:50:53.727Z,18.91
2018-04-17T10:53:23.631Z,19.00
2018-04-17T10:55:53.517Z,18.93
2018-04-17T10:58:23.006Z,18.70
2018-04-17T11:00:52.520Z,18.87
2018-04-17T11:03:22.045Z,18.98
2018-04-17T11:05:51.736Z,19.28
2018-04-17T11:08:21.477Z,19.43
2018-04-17T11:10:51.026Z,19.38
2018-04-17T11:13:20.531Z,19.27
2018-04-17T11:15:50.056Z,19.07
2018-04-17T11:18:19.556Z,19.10
2018-04-17T11:20:49.057Z,19.04
2018-04-17T11:23:18.556Z,19.48
2018-04-17T11:25:48.054Z,19.41
2018-04-17T11:28:17.562Z,19.27
2018-04-17T11:30:47.066Z,19.45
2018-04-17T11:33:16.579Z,19.59
2018-04-17T11:35:46.974Z,19.64
2018-04-17T11:38:16.864Z,19.65
2018-04-17T11:40:46.370Z,19.82
2018-04-17T11:43:15.641Z,19.82
2018-04-17T11:45:45.145Z,19.84
2018-04-17T11:48:14.628Z,19.72
2018-04-17T11:50:44.157Z,19.85
2018-04-17T11:53:13.648Z,20.11
2018-04-17T11:55:43.146Z,20.04
2018-04-17T11:58:12.633Z,20.12
2018-04-17T12:00:42.138Z,20.27
2018-04-17T12:03:12.052Z,20.29
2018-04-17T12:05:42.111Z,20.13
2018-04-17T12:08:11.600Z,20.23
2018-04-17T12:10:40.867Z,20.44
2018-04-17T12:13:10.535Z,20.49
2018-04-17T12:15:40.073Z,20.32
2018-04-17T12:18:09.574Z,20.39
2018-04-17T12:20:39.173Z,20.42
2018-04-17T12:23:09.224Z,20.67
2018-04-17T12:25:38.726Z,20.54
2018-04-17T12:28:08.795Z,20.81
2018-04-17T12:30:39.237Z,20.67
2018-04-17T12:33:08.729Z,20.39
2018-04-17T12:35:39.213Z,20.38
2018-04-17T12:38:09.261Z,20.58
2018-04-17T12:40:39.324Z,20.82
2018-04-17T12:43:09.387Z,21.10
2018-04-17T12:45:39.483Z,21.14
2018-04-17T12:48:09.538Z,21.00
2018-04-17T12:50:39.588Z,20.70
2018-04-17T12:53:09.642Z,20.84
2018-04-17T12:55:39.704Z,20.79
2018-04-17T12:58:10.338Z,20.82
2018-04-17T13:00:40.800Z,20.95
2018-04-17T13:03:11.058Z,20.81
2018-04-17T13:05:41.115Z,20.98
2018-04-17T13:08:11.174Z,20.74
2018-04-17T13:10:41.232Z,20.98
2018-04-17T13:13:11.278Z,21.18
2018-04-17T13:15:41.385Z,21.22
2018-04-17T13:18:11.600Z,21.17
2018-04-17T13:20:42.251Z,21.19
2018-04-17T13:23:12.698Z,21.38
2018-04-17T13:25:42.765Z,21.27
2018-04-17T13:28:12.811Z,21.45
2018-04-17T13:30:43.254Z,21.17
2018-04-17T13:33:13.289Z,21.43
2018-04-17T13:35:43.343Z,21.60
2018-04-17T13:38:13.409Z,21.66
2018-04-17T13:40:43.457Z,21.49
2018-04-17T13:43:13.514Z,21.43
2018-04-17T13:45:43.561Z,21.35
2018-04-17T13:48:13.609Z,21.51
2018-04-17T13:50:43.663Z,21.78
2018-04-17T13:53:13.719Z,21.54
2018-04-17T13:55:43.783Z,21.58
2018-04-17T13:58:13.825Z,21.64
2018-04-17T14:00:43.874Z,21.52
2018-04-17T14:03:13.928Z,21.65
2018-04-17T14:05:43.991Z,21.57
2018-04-17T14:08:14.438Z,21.50
2018-04-17T14:10:44.724Z,21.56
2018-04-17T14:13:14.781Z,21.63
2018-04-17T14:15:45.474Z,21.58
2018-04-17T14:18:15.513Z,21.40
2018-04-17T14:20:46.065Z,21.57
2018-04-17T14:23:16.139Z,21.83
2018-04-17T14:25:46.209Z,22.21
2018-04-17T14:28:16.270Z,21.85
2018-04-17T14:30:46.314Z,21.57
2018-04-17T14:33:16.781Z,21.65
2018-04-17T14:35:46.529Z,21.67
2018-04-17T14:38:16.574Z,21.55
2018-04-17T14:40:47.034Z,21.86
2018-04-17T14:43:17.668Z,21.85
2018-04-17T14:45:47.745Z,22.02
2018-04-17T14:48:18.193Z,21.89
2018-04-17T14:50:48.007Z,21.92
2018-04-17T14:53:18.045Z,21.95
2018-04-17T14:55:48.119Z,21.66
2018-04-17T14:58:18.559Z,21.69
2018-04-17T15:00:49.005Z,21.81
2018-04-17T15:03:19.069Z,21.81
2018-04-17T15:05:49.163Z,21.78
2018-04-17T15:08:19.231Z,21.55
2018-04-17T15:10:49.312Z,21.46
2018-04-17T15:13:19.364Z,21.46
2018-04-17T15:15:49.427Z,21.36
2018-04-17T15:18:19.485Z,21.50
2018-04-17T15:20:49.551Z,21.60
2018-04-17T15:23:19.798Z,21.59
2018-04-17T15:25:49.867Z,21.63
2018-04-17T15:28:20.317Z,21.58
2018-04-17T15:30:50.373Z,21.69
2018-04-17T15:33:20.432Z,21.51
2018-04-17T15:35:50.879Z,21.45
2018-04-17T15:38:20.981Z,21.59
2018-04-17T15:40:51.197Z,21.65
2018-04-17T15:43:21.251Z,21.47
2018-04-17T15:45:51.331Z,21.44
2018-04-17T15:48:21.072Z,21.49
2018-04-17T15:50:51.357Z,21.46
2018-04-17T15:53:21.169Z,21.30
2018-04-17T15:55:51.279Z,21.39
2018-04-17T15:58:21.332Z,21.30
2018-04-17T16:00:51.791Z,21.32
2018-04-17T16:03:21.879Z,21.44
2018-04-17T16:05:52.125Z,21.47
2018-04-17T16:08:22.191Z,21.34
2018-04-17T16:10:52.263Z,21.23
2018-04-17T16:13:22.332Z,21.25
2018-04-17T16:15:52.389Z,21.23
2018-04-17T16:18:22.451Z,21.29
2018-04-17T16:20:52.508Z,21.22
2018-04-17T16:23:22.885Z,21.30
2018-04-17T16:25:52.942Z,21.37
2018-04-17T16:28:23.011Z,21.20
2018-04-17T16:30:53.078Z,21.18
2018-04-17T16:33:23.157Z,21.06
2018-04-17T16:35:53.219Z,20.80
2018-04-17T16:38:23.280Z,20.73
2018-04-17T16:40:53.124Z,20.71
2018-04-17T16:43:23.178Z,20.67
2018-04-17T16:45:52.678Z,20.71
2018-04-17T16:48:22.744Z,20.70
2018-04-17T16:50:52.808Z,20.71
2018-04-17T16:53:22.880Z,20.69
2018-04-17T16:55:52.945Z,20.62
2018-04-17T16:58:23.024Z,20.47
2018-04-17T17:00:52.912Z,20.32
2018-04-17T17:03:22.973Z,20.40
2018-04-17T17:05:53.029Z,20.33
2018-04-17T17:08:22.530Z,20.41
2018-04-17T17:10:51.802Z,20.45
2018-04-17T17:13:21.856Z,20.41
2018-04-17T17:15:51.383Z,20.36
2018-04-17T17:18:20.887Z,20.30
2018-04-17T17:20:50.396Z,20.28
2018-04-17T17:23:19.895Z,20.30
2018-04-17T17:25:49.405Z,20.31
2018-04-17T17:28:18.920Z,20.31
2018-04-17T17:30:49.004Z,20.29
2018-04-17T17:33:19.476Z,20.25
2018-04-17T17:35:49.390Z,20.14
2018-04-17T17:38:18.945Z,20.08
2018-04-17T17:40:48.623Z,19.96
2018-04-17T17:43:18.294Z,19.82
2018-04-17T17:45:47.782Z,19.82
2018-04-17T17:48:17.277Z,19.77
2018-04-17T17:50:46.778Z,19.71
2018-04-17T17:53:16.270Z,19.72
2018-04-17T17:55:45.792Z,19.62
2018-04-17T17:58:15.298Z,19.58
2018-04-17T18:00:44.564Z,19.49
2018-04-17T18:03:14.468Z,19.44
2018-04-17T18:05:44.174Z,19.40
2018-04-17T18:08:13.670Z,19.22
2018-04-17T18:10:43.171Z,19.18
2018-04-17T18:13:12.712Z,19.10
2018-04-17T18:15:42.376Z,18.95
2018-04-17T18:18:11.661Z,18.94
2018-04-17T18:20:41.176Z,18.92
2018-04-17T18:23:10.678Z,18.76
2018-04-17T18:25:40.177Z,18.69
2018-04-17T18:28:09.702Z,18.65
2018-04-17T18:30:39.014Z,18.43
2018-04-17T18:33:08.516Z,18.31
2018-04-17T18:35:38.011Z,18.27
2018-04-17T18:38:07.293Z,18.21
2018-04-17T18:40:36.811Z,18.16
2018-04-17T18:43:06.318Z,18.10
2018-04-17T18:45:35.829Z,18.23
2018-04-17T18:48:05.333Z,17.97
2018-04-17T18:50:34.842Z,17.87
2018-04-17T18:53:04.352Z,18.06
2018-04-17T18:55:33.853Z,17.86
2018-04-17T18:58:03.355Z,17.87
2018-04-17T19:00:32.851Z,17.82
2018-04-17T19:03:02.351Z,17.76
2018-04-17T19:05:31.853Z,17.68
2018-04-17T19:08:01.365Z,17.58
2018-04-17T19:10:30.653Z,17.54
2018-04-17T19:13:00.187Z,17.51
2018-04-17T19:15:29.700Z,17.41
2018-04-17T19:17:59.200Z,17.29
2018-04-17T19:20:28.698Z,17.08
2018-04-17T19:22:58.198Z,17.00
2018-04-17T19:25:27.717Z,16.99
2018-04-17T19:27:57.231Z,16.97
2018-04-17T19:30:26.520Z,17.06
2018-04-17T19:32:55.837Z,17.02
2018-04-17T19:35:25.506Z,17.04
2018-04-17T19:37:55.029Z,16.99
2018-04-17T19:40:24.598Z,17.01
2018-04-17T19:42:53.914Z,16.87
2018-04-17T19:45:23.517Z,16.81
2018-04-17T19:47:53.173Z,16.79
2018-04-17T19:50:22.670Z,16.82
2018-04-17T19:52:52.209Z,16.75
2018-04-17T19:55:22.107Z,16.65
2018-04-17T19:57:51.599Z,16.67
2018-04-17T20:00:21.107Z,16.59
2018-04-17T20:02:50.620Z,16.55
2018-04-17T20:05:20.172Z,16.44
2018-04-17T20:07:49.671Z,16.36
2018-04-17T20:10:19.174Z,16.36
2018-04-17T20:12:48.692Z,16.30
2018-04-17T20:15:18.204Z,16.26
2018-04-17T20:17:47.711Z,16.23
2018-04-17T20:20:17.245Z,16.12
2018-04-17T20:22:46.739Z,16.02
2018-04-17T20:25:16.249Z,15.93
2018-04-17T20:27:45.762Z,16.07
2018-04-17T20:30:15.275Z,15.99
2018-04-17T20:32:45.451Z,15.89
2018-04-17T20:35:14.963Z,15.84
2018-04-17T20:37:44.457Z,15.96
2018-04-17T20:40:13.747Z,15.95
2018-04-17T20:42:43.255Z,15.92
2018-04-17T20:45:12.521Z,16.02
2018-04-17T20:47:42.013Z,16.04
2018-04-17T20:50:11.315Z,16.11
2018-04-17T20:52:40.597Z,16.09
2018-04-17T20:55:09.877Z,16.09
2018-04-17T20:57:39.150Z,16.03
2018-04-17T21:00:09.075Z,16.06
2018-04-17T21:02:38.575Z,16.03
2018-04-17T21:05:08.465Z,15.91
2018-04-17T21:07:37.994Z,15.74
2018-04-17T21:10:07.554Z,15.66
2018-04-17T21:12:36.821Z,15.71
2018-04-17T21:15:06.339Z,15.75
2018-04-17T21:17:35.832Z,15.74
2018-04-17T21:20:05.355Z,15.59
2018-04-17T21:22:34.623Z,15.62
2018-04-17T21:25:04.283Z,15.71
2018-04-17T21:27:33.795Z,15.75
2018-04-17T21:30:03.303Z,15.71
2018-04-17T21:32:32.803Z,15.54
2018-04-17T21:35:02.312Z,15.45
2018-04-17T21:37:31.825Z,15.32
2018-04-17T21:40:01.082Z,15.36
2018-04-17T21:42:30.583Z,15.25
2018-04-17T21:45:00.301Z,15.09
2018-04-17T21:47:29.811Z,15.07
2018-04-17T21:49:59.303Z,15.13
2018-04-17T21:52:28.795Z,15.12
2018-04-17T21:54:58.316Z,15.02
2018-04-17T21:57:27.847Z,15.00
2018-04-17T21:59:57.547Z,14.92
2018-04-17T22:02:27.071Z,14.74
2018-04-17T22:04:56.573Z,14.66
2018-04-17T22:07:26.069Z,14.51
2018-04-17T22:09:55.586Z,14.36
2018-04-17T22:12:25.118Z,14.37
2018-04-17T22:14:54.621Z,14.38
2018-04-17T22:17:24.136Z,14.41
2018-04-17T22:19:53.416Z,14.29
2018-04-17T22:22:22.685Z,14.24
2018-04-17T22:24:51.951Z,14.32
2018-04-17T22:27:21.877Z,14.33
2018-04-17T22:29:51.382Z,14.38
2018-04-17T22:32:20.569Z,14.36
2018-04-17T22:34:50.461Z,14.40
2018-04-17T22:37:19.745Z,14.48
2018-04-17T22:39:49.051Z,14.48
2018-04-17T22:42:18.333Z,14.30
2018-04-17T22:44:47.653Z,14.41
2018-04-17T22:47:16.963Z,14.28
2018-04-17T22:49:46.234Z,14.14
2018-04-17T22:52:15.517Z,13.94
2018-04-17T22:54:45.100Z,14.02
2018-04-17T22:57:14.813Z,13.96
2018-04-17T22:59:44.108Z,13.91
2018-04-17T23:02:14.030Z,13.75
2018-04-17T23:04:43.948Z,13.68
2018-04-17T23:07:13.834Z,13.67
2018-04-17T23:09:43.353Z,13.65
2018-04-17T23:12:13.570Z,13.73
2018-04-17T23:14:43.486Z,13.64
2018-04-17T23:17:13.221Z,13.85
2018-04-17T23:19:42.731Z,13.60
2018-04-17T23:22:12.124Z,13.51
2018-04-17T23:24:42.047Z,13.42
2018-04-17T23:27:11.559Z,13.33
2018-04-17T23:29:41.094Z,13.27
2018-04-17T23:32:10.630Z,13.17
2018-04-17T23:34:40.560Z,13.15
2018-04-17T23:37:10.496Z,13.22
2018-04-17T23:39:39.331Z,13.20
2018-04-17T23:42:08.845Z,13.32
2018-04-17T23:44:38.395Z,13.25
2018-04-17T23:47:08.340Z,13.12
2018-04-17T23:49:38.097Z,12.98
2018-04-17T23:52:07.713Z,12.90
2018-04-17T23:54:37.629Z,12.84
2018-04-17T23:57:07.573Z,12.70
2018-04-17T23:59:37.109Z,12.58
